createdAt,value
2023-04-19T00:00:52.971Z,0.00
2023-04-19T00:01:53.326Z,0.00
2023-04-19T00:02:53.801Z,0.00
2023-04-19T00:03:54.176Z,0.00
2023-04-19T00:04:54.450Z,0.00
2023-04-19T00:05:54.666Z,0.00
2023-04-19T00:06:55.019Z,0.00
2023-04-19T00:07:55.353Z,0.00
2023-04-19T00:08:55.717Z,0.00
2023-04-19T00:09:56.100Z,0.00
2023-04-19T00:10:56.465Z,0.00
2023-04-19T00:11:56.788Z,0.00
2023-04-19T00:12:57.122Z,0.00
2023-04-19T00:13:57.475Z,0.00
2023-04-19T00:14:57.840Z,0.00
2023-04-19T00:15:58.193Z,0.00
2023-04-19T00:16:58.632Z,0.00
2023-04-19T00:17:58.914Z,0.00
2023-04-19T00:18:59.238Z,0.00
2023-04-19T00:19:59.626Z,0.00
2023-04-19T00:20:59.917Z,0.00
2023-04-19T00:22:00.260Z,0.00
2023-04-19T00:23:00.600Z,0.00
2023-04-19T00:24:00.946Z,0.00
2023-04-19T00:25:01.321Z,0.00
2023-04-19T00:26:01.661Z,0.00
2023-04-19T00:27:02.054Z,0.00
2023-04-19T00:28:02.364Z,0.00
2023-04-19T00:29:02.708Z,0.00
2023-04-19T00:30:03.068Z,0.00
2023-04-19T00:31:03.478Z,0.00
2023-04-19T00:32:03.777Z,0.00
2023-04-19T00:33:04.175Z,0.00
2023-04-19T00:34:04.459Z,0.00
2023-04-19T00:35:04.830Z,0.00
2023-04-19T00:36:05.166Z,0.00
2023-04-19T00:37:05.544Z,0.00
2023-04-19T00:38:05.866Z,0.00
2023-04-19T00:39:06.233Z,0.00
2023-04-19T00:40:06.579Z,0.00
2023-04-19T00:41:06.921Z,0.00
2023-04-19T00:42:07.270Z,0.00
2023-04-19T00:43:07.624Z,0.00
2023-04-19T00:44:07.948Z,0.00
2023-04-19T00:45:08.301Z,0.00
2023-04-19T00:46:08.697Z,0.00
2023-04-19T00:47:09.012Z,0.00
2023-04-19T00:48:09.409Z,0.00
2023-04-19T00:49:09.711Z,0.00
2023-04-19T00:50:10.112Z,0.00
2023-04-19T00:51:10.449Z,0.00
2023-04-19T00:52:10.787Z,0.00
2023-04-19T00:53:11.118Z,0.00
2023-04-19T00:54:11.459Z,0.00
2023-04-19T00:55:11.835Z,0.00
2023-04-19T00:56:12.149Z,0.00
2023-04-19T00:57:12.475Z,0.00
2023-04-19T00:58:12.831Z,0.00
2023-04-19T00:59:13.184Z,0.00
2023-04-19T01:00:13.529Z,0.00
2023-04-19T01:01:13.970Z,0.00
2023-04-19T01:02:14.277Z,0.00
2023-04-19T01:03:14.749Z,0.00
2023-04-19T01:04:15.242Z,0.00
2023-04-19T01:05:15.352Z,0.00
2023-04-19T01:06:15.620Z,0.00
2023-04-19T01:07:15.954Z,0.00
2023-04-19T01:08:16.299Z,0.00
2023-04-19T01:09:16.637Z,0.00
2023-04-19T01:10:17.124Z,0.00
2023-04-19T01:11:17.347Z,0.00
2023-04-19T01:12:17.714Z,0.00
2023-04-19T01:13:18.034Z,0.00
2023-04-19T01:14:18.365Z,0.00
2023-04-19T01:15:18.761Z,0.00
2023-04-19T01:16:19.133Z,0.00
2023-04-19T01:17:19.560Z,0.00
2023-04-19T01:18:19.794Z,0.00
2023-04-19T01:19:20.132Z,0.00
2023-04-19T01:20:20.522Z,0.00
2023-04-19T01:21:20.854Z,0.00
2023-04-19T01:22:21.154Z,0.00
2023-04-19T01:23:21.490Z,0.00
2023-04-19T01:24:21.830Z,0.00
2023-04-19T01:25:22.188Z,0.00
2023-04-19T01:26:22.530Z,0.00
2023-04-19T01:27:22.875Z,0.00
2023-04-19T01:28:23.243Z,0.00
2023-04-19T01:29:23.590Z,0.00
2023-04-19T01:30:23.972Z,0.00
2023-04-19T01:31:24.318Z,0.00
2023-04-19T01:32:24.602Z,0.00
2023-04-19T01:33:24.932Z,0.00
2023-04-19T01:34:25.283Z,0.00
2023-04-19T01:35:25.628Z,0.00
2023-04-19T01:36:25.985Z,0.00
2023-04-19T01:37:26.318Z,0.00
2023-04-19T01:38:26.649Z,0.00
2023-04-19T01:39:27.007Z,0.00
2023-04-19T01:40:27.374Z,0.00
2023-04-19T01:41:27.694Z,0.00
2023-04-19T01:42:28.146Z,0.00
2023-04-19T01:43:28.400Z,0.00
2023-04-19T01:44:28.743Z,0.00
2023-04-19T01:45:29.098Z,0.00
2023-04-19T01:46:29.464Z,0.00
2023-04-19T01:47:29.814Z,0.00
2023-04-19T01:48:30.128Z,0.00
2023-04-19T01:49:30.497Z,0.00
2023-04-19T01:50:30.860Z,0.00
2023-04-19T01:51:31.192Z,0.00
2023-04-19T01:52:31.541Z,0.00
2023-04-19T01:53:31.877Z,0.00
2023-04-19T01:54:32.222Z,0.00
2023-04-19T01:55:32.594Z,0.00
2023-04-19T01:56:32.935Z,0.00
2023-04-19T01:57:33.278Z,0.00
2023-04-19T01:58:33.673Z,0.00
2023-04-19T01:59:33.974Z,0.00
2023-04-19T02:00:34.358Z,0.00
2023-04-19T02:01:34.640Z,0.00
2023-04-19T02:02:35.198Z,0.00
2023-04-19T02:03:35.644Z,0.00
2023-04-19T02:04:35.687Z,0.00
2023-04-19T02:05:36.055Z,0.00
2023-04-19T02:06:36.396Z,0.00
2023-04-19T02:07:36.740Z,0.00
2023-04-19T02:08:37.100Z,0.00
2023-04-19T02:09:37.439Z,0.00
2023-04-19T02:10:37.808Z,0.00
2023-04-19T02:11:38.144Z,0.00
2023-04-19T02:12:38.482Z,0.00
2023-04-19T02:13:38.831Z,0.00
2023-04-19T02:14:39.167Z,0.00
2023-04-19T02:15:39.506Z,0.00
2023-04-19T02:16:39.899Z,0.00
2023-04-19T02:17:40.244Z,0.00
2023-04-19T02:18:40.564Z,0.00
2023-04-19T02:19:40.904Z,0.00
2023-04-19T02:20:41.293Z,0.00
2023-04-19T02:21:41.644Z,0.00
2023-04-19T02:22:42.005Z,0.00
2023-04-19T02:23:42.324Z,0.00
2023-04-19T02:24:42.689Z,0.00
2023-04-19T02:25:43.085Z,0.00
2023-04-19T02:26:43.385Z,0.00
2023-04-19T02:27:43.739Z,0.00
2023-04-19T02:28:44.078Z,0.00
2023-04-19T02:29:44.435Z,0.00
2023-04-19T02:30:44.804Z,0.00
2023-04-19T02:31:45.205Z,0.00
2023-04-19T02:32:45.517Z,0.00
2023-04-19T02:33:45.871Z,0.00
2023-04-19T02:34:46.189Z,0.00
2023-04-19T02:35:46.545Z,0.00
2023-04-19T02:36:46.875Z,0.00
2023-04-19T02:37:47.231Z,0.00
2023-04-19T02:38:47.550Z,0.00
2023-04-19T02:39:47.892Z,0.00
2023-04-19T02:40:48.250Z,0.00
2023-04-19T02:41:48.615Z,0.00
2023-04-19T02:42:48.986Z,0.00
2023-04-19T02:43:49.334Z,0.00
2023-04-19T02:44:49.671Z,0.00
2023-04-19T02:45:50.051Z,0.00
2023-04-19T02:46:50.365Z,0.00
2023-04-19T02:47:50.728Z,0.00
2023-04-19T02:48:51.046Z,0.00
2023-04-19T02:49:51.388Z,0.00
2023-04-19T02:50:51.746Z,0.00
2023-04-19T02:51:52.078Z,0.00
2023-04-19T02:52:52.412Z,0.00
2023-04-19T02:53:52.755Z,0.00
2023-04-19T02:54:59.112Z,0.00
2023-04-19T02:55:53.490Z,0.00
2023-04-19T02:56:53.854Z,0.00
2023-04-19T02:57:54.176Z,0.00
2023-04-19T02:58:54.514Z,0.00
2023-04-19T02:59:54.870Z,0.00
2023-04-19T03:00:55.240Z,0.00
2023-04-19T03:01:55.709Z,0.00
2023-04-19T03:02:56.025Z,0.00
2023-04-19T03:03:56.369Z,0.00
2023-04-19T03:04:56.629Z,0.00
2023-04-19T03:05:56.993Z,0.00
2023-04-19T03:06:57.327Z,0.00
2023-04-19T03:07:57.674Z,0.00
2023-04-19T03:08:58.024Z,0.00
2023-04-19T03:09:58.361Z,0.00
2023-04-19T03:10:58.751Z,0.00
2023-04-19T03:11:59.076Z,0.00
2023-04-19T03:12:59.417Z,0.00
2023-04-19T03:13:59.765Z,0.00
2023-04-19T03:15:00.139Z,0.00
2023-04-19T03:16:00.519Z,0.00
2023-04-19T03:17:00.808Z,0.00
2023-04-19T03:18:01.173Z,0.00
2023-04-19T03:19:01.494Z,0.00
2023-04-19T03:20:01.926Z,0.00
2023-04-19T03:21:02.227Z,0.00
2023-04-19T03:22:02.561Z,0.00
2023-04-19T03:23:02.913Z,0.00
2023-04-19T03:24:03.250Z,0.00
2023-04-19T03:25:03.589Z,0.00
2023-04-19T03:26:03.984Z,0.00
2023-04-19T03:27:04.285Z,0.00
2023-04-19T03:28:04.631Z,0.00
2023-04-19T03:29:04.972Z,0.00
2023-04-19T03:30:05.325Z,0.00
2023-04-19T03:31:05.779Z,0.00
2023-04-19T03:32:06.051Z,0.00
2023-04-19T03:33:06.448Z,0.00
2023-04-19T03:34:06.741Z,0.00
2023-04-19T03:35:07.043Z,0.00
2023-04-19T03:36:07.286Z,1.00
2023-04-19T03:37:07.570Z,1.00
2023-04-19T03:38:07.860Z,1.00
2023-04-19T03:39:08.155Z,2.00
2023-04-19T03:40:08.447Z,2.00
2023-04-19T03:41:08.736Z,2.00
2023-04-19T03:42:09.011Z,2.00
2023-04-19T03:43:09.267Z,1.00
2023-04-19T03:44:10.190Z,3.00
2023-04-19T03:45:09.851Z,2.00
2023-04-19T03:46:10.156Z,5.00
2023-04-19T03:47:10.428Z,2.00
2023-04-19T03:48:10.752Z,6.00
2023-04-19T03:49:11.006Z,8.00
2023-04-19T03:50:11.275Z,3.00
2023-04-19T03:51:11.580Z,9.00
2023-04-19T03:52:11.844Z,7.00
2023-04-19T03:53:12.009Z,10.00
2023-04-19T03:54:12.176Z,15.00
2023-04-19T03:55:12.542Z,11.00
2023-04-19T03:56:12.763Z,17.00
2023-04-19T03:57:13.021Z,25.00
2023-04-19T03:58:13.197Z,25.00
2023-04-19T03:59:13.488Z,24.00
2023-04-19T04:00:13.787Z,30.00
2023-04-19T04:01:14.107Z,28.00
2023-04-19T04:02:14.508Z,39.00
2023-04-19T04:03:14.825Z,45.00
2023-04-19T04:04:15.387Z,49.00
2023-04-19T04:05:15.311Z,55.00
2023-04-19T04:06:15.543Z,61.00
2023-04-19T04:07:15.815Z,71.00
2023-04-19T04:08:16.044Z,74.00
2023-04-19T04:09:16.268Z,83.00
2023-04-19T04:10:16.437Z,94.00
2023-04-19T04:11:16.637Z,106.00
2023-04-19T04:12:16.901Z,117.00
2023-04-19T04:13:17.085Z,131.00
2023-04-19T04:14:17.360Z,146.00
2023-04-19T04:15:17.570Z,160.00
2023-04-19T04:16:17.909Z,178.00
2023-04-19T04:17:18.008Z,192.00
2023-04-19T04:18:18.172Z,211.00
2023-04-19T04:19:18.342Z,227.00
2023-04-19T04:20:18.511Z,252.00
2023-04-19T04:21:18.700Z,265.00
2023-04-19T04:22:18.979Z,280.00
2023-04-19T04:23:19.151Z,309.00
2023-04-19T04:24:19.306Z,322.00
2023-04-19T04:25:21.199Z,347.00
2023-04-19T04:26:19.704Z,367.00
2023-04-19T04:27:19.838Z,391.00
2023-04-19T04:28:20.007Z,416.00
2023-04-19T04:29:20.180Z,433.00
2023-04-19T04:30:20.361Z,466.00
2023-04-19T04:31:20.603Z,493.00
2023-04-19T04:32:20.761Z,512.00
2023-04-19T04:33:20.883Z,547.00
2023-04-19T04:34:21.194Z,572.00
2023-04-19T04:35:21.349Z,593.00
2023-04-19T04:36:21.542Z,626.00
2023-04-19T04:37:21.709Z,649.00
2023-04-19T04:38:25.006Z,673.00
2023-04-19T04:39:22.152Z,699.00
2023-04-19T04:40:22.333Z,720.00
2023-04-19T04:41:22.927Z,747.00
2023-04-19T04:42:22.671Z,772.00
2023-04-19T04:43:22.873Z,796.00
2023-04-19T04:44:23.164Z,820.00
2023-04-19T04:45:23.206Z,853.00
2023-04-19T04:46:23.431Z,881.00
2023-04-19T04:47:23.609Z,912.00
2023-04-19T04:48:23.727Z,943.00
2023-04-19T04:49:23.882Z,975.00
2023-04-19T04:50:24.063Z,1029.00
2023-04-19T04:51:24.268Z,1079.00
2023-04-19T04:52:24.419Z,1128.00
2023-04-19T04:53:24.602Z,1176.00
2023-04-19T04:54:24.779Z,1213.00
2023-04-19T04:55:24.994Z,1250.00
2023-04-19T04:56:25.184Z,1291.00
2023-04-19T04:57:25.336Z,1327.00
2023-04-19T04:58:25.634Z,1358.00
2023-04-19T04:59:25.830Z,1393.00
2023-04-19T05:00:26.038Z,1425.00
2023-04-19T05:01:26.237Z,1464.00
2023-04-19T05:02:26.588Z,1504.00
2023-04-19T05:03:26.672Z,1540.00
2023-04-19T05:04:26.988Z,1589.00
2023-04-19T05:05:27.270Z,1643.00
2023-04-19T05:06:27.582Z,1686.00
2023-04-19T05:07:27.776Z,1732.00
2023-04-19T05:08:27.946Z,1773.00
2023-04-19T05:09:28.106Z,1804.00
2023-04-19T05:10:28.412Z,1824.00
2023-04-19T05:11:28.722Z,1838.00
2023-04-19T05:12:28.892Z,1842.00
2023-04-19T05:13:29.065Z,1859.00
2023-04-19T05:14:29.235Z,1869.00
2023-04-19T05:15:29.539Z,1882.00
2023-04-19T05:16:29.918Z,1915.00
2023-04-19T05:17:30.160Z,1944.00
2023-04-19T05:18:30.327Z,1977.00
2023-04-19T05:19:30.615Z,2016.00
2023-04-19T05:20:30.906Z,2078.00
2023-04-19T05:21:31.237Z,2128.00
2023-04-19T05:22:31.504Z,2182.00
2023-04-19T05:23:31.816Z,2246.00
2023-04-19T05:24:32.105Z,2298.00
2023-04-19T05:25:32.291Z,2360.00
2023-04-19T05:26:32.526Z,2405.00
2023-04-19T05:27:32.749Z,2434.00
2023-04-19T05:28:33.063Z,2473.00
2023-04-19T05:29:33.231Z,2508.00
2023-04-19T05:30:33.517Z,2540.00
2023-04-19T05:31:33.875Z,2571.00
2023-04-19T05:32:34.130Z,2619.00
2023-04-19T05:33:34.187Z,2649.00
2023-04-19T05:34:34.396Z,2696.00
2023-04-19T05:35:34.684Z,2748.00
2023-04-19T05:36:34.866Z,2796.00
2023-04-19T05:37:35.034Z,2839.00
2023-04-19T05:38:35.217Z,2884.00
2023-04-19T05:39:35.430Z,2945.00
2023-04-19T05:40:35.713Z,3001.00
2023-04-19T05:41:35.972Z,3051.00
2023-04-19T05:42:36.196Z,3124.00
2023-04-19T05:43:36.503Z,3194.00
2023-04-19T05:44:36.797Z,3267.00
2023-04-19T05:45:37.098Z,3353.00
2023-04-19T05:46:37.434Z,3423.00
2023-04-19T05:47:37.609Z,3467.00
2023-04-19T05:48:37.877Z,3493.00
2023-04-19T05:49:38.182Z,3479.00
2023-04-19T05:50:38.512Z,3454.00
2023-04-19T05:51:38.676Z,3433.00
2023-04-19T05:52:38.847Z,3386.00
2023-04-19T05:53:39.150Z,3364.00
2023-04-19T05:54:39.320Z,3335.00
2023-04-19T05:55:39.630Z,3313.00
2023-04-19T05:56:39.934Z,3283.00
2023-04-19T05:57:40.126Z,3206.00
2023-04-19T05:58:40.286Z,3114.00
2023-04-19T05:59:40.630Z,3023.00
2023-04-19T06:00:40.880Z,2948.00
2023-04-19T06:01:41.275Z,2863.00
2023-04-19T06:02:41.482Z,2793.00
2023-04-19T06:03:41.981Z,2714.00
2023-04-19T06:04:42.126Z,2645.00
2023-04-19T06:05:42.149Z,2582.00
2023-04-19T06:06:42.342Z,2525.00
2023-04-19T06:07:47.369Z,2473.00
2023-04-19T06:08:42.723Z,2438.00
2023-04-19T06:09:43.038Z,2408.00
2023-04-19T06:11:50.868Z,2377.00
2023-04-19T06:12:43.671Z,2363.00
2023-04-19T06:13:43.958Z,2358.00
2023-04-19T06:14:44.152Z,2344.00
2023-04-19T06:15:44.459Z,2336.00
2023-04-19T06:16:44.660Z,2326.00
2023-04-19T06:17:44.878Z,2311.00
2023-04-19T06:18:45.106Z,2298.00
2023-04-19T06:19:45.310Z,2291.00
2023-04-19T06:20:45.617Z,2278.00
2023-04-19T06:21:45.808Z,2272.00
2023-04-19T06:22:46.008Z,2274.00
2023-04-19T06:23:46.270Z,2274.00
2023-04-19T06:24:46.578Z,2277.00
2023-04-19T06:25:46.762Z,2276.00
2023-04-19T06:26:47.076Z,2285.00
2023-04-19T06:27:47.260Z,2287.00
2023-04-19T06:28:47.413Z,2287.00
2023-04-19T06:29:49.806Z,2295.00
2023-04-19T06:30:48.062Z,2297.00
2023-04-19T06:31:48.263Z,2297.00
2023-04-19T06:32:48.389Z,2301.00
2023-04-19T06:33:48.560Z,2306.00
2023-04-19T06:34:48.861Z,2308.00
2023-04-19T06:35:49.027Z,2306.00
2023-04-19T06:36:49.352Z,2309.00
2023-04-19T06:37:50.892Z,2309.00
2023-04-19T06:38:49.698Z,2310.00
2023-04-19T06:39:49.998Z,2316.00
2023-04-19T06:40:50.165Z,2318.00
2023-04-19T06:41:50.364Z,2318.00
2023-04-19T06:42:50.544Z,2319.00
2023-04-19T06:43:50.702Z,2322.00
2023-04-19T06:44:51.152Z,2328.00
2023-04-19T06:45:51.124Z,2328.00
2023-04-19T06:46:51.272Z,2332.00
2023-04-19T06:47:51.563Z,2334.00
2023-04-19T06:48:51.621Z,2339.00
2023-04-19T06:49:51.919Z,2345.00
2023-04-19T06:50:52.212Z,2347.00
2023-04-19T06:51:52.543Z,2352.00
2023-04-19T06:52:52.683Z,2359.00
2023-04-19T06:53:52.906Z,2363.00
2023-04-19T06:54:53.187Z,2364.00
2023-04-19T06:55:53.481Z,2367.00
2023-04-19T06:56:53.682Z,2375.00
2023-04-19T06:57:53.961Z,2382.00
2023-04-19T06:58:54.241Z,2385.00
2023-04-19T06:59:54.428Z,2390.00
2023-04-19T07:00:54.720Z,2391.00
2023-04-19T07:01:55.102Z,2400.00
2023-04-19T07:02:55.337Z,2406.00
2023-04-19T07:03:57.371Z,2410.00
2023-04-19T07:04:55.784Z,2417.00
2023-04-19T07:05:55.886Z,2422.00
2023-04-19T07:06:56.205Z,2431.00
2023-04-19T07:07:56.358Z,2439.00
2023-04-19T07:08:56.654Z,2448.00
2023-04-19T07:09:56.954Z,2449.00
2023-04-19T07:10:57.259Z,2455.00
2023-04-19T07:11:57.454Z,2459.00
2023-04-19T07:12:57.614Z,2463.00
2023-04-19T07:13:57.929Z,2475.00
2023-04-19T07:14:58.084Z,2484.00
2023-04-19T07:15:58.503Z,2491.00
2023-04-19T07:16:58.565Z,2497.00
2023-04-19T07:17:58.852Z,2500.00
2023-04-19T07:18:58.930Z,2506.00
2023-04-19T07:19:59.090Z,2515.00
2023-04-19T07:20:59.394Z,2522.00
2023-04-19T07:21:59.854Z,2530.00
2023-04-19T07:22:59.870Z,2533.00
2023-04-19T07:24:00.190Z,2538.00
2023-04-19T07:25:00.493Z,2540.00
2023-04-19T07:26:00.764Z,2549.00
2023-04-19T07:27:01.113Z,2553.00
2023-04-19T07:28:01.240Z,2553.00
2023-04-19T07:29:01.561Z,2557.00
2023-04-19T07:30:01.760Z,2559.00
2023-04-19T07:31:01.898Z,2568.00
2023-04-19T07:32:02.250Z,2572.00
2023-04-19T07:33:02.428Z,2578.00
2023-04-19T07:34:02.559Z,2586.00
2023-04-19T07:35:02.867Z,2594.00
2023-04-19T07:36:03.037Z,2596.00
2023-04-19T07:37:03.243Z,2606.00
2023-04-19T07:38:03.524Z,2610.00
2023-04-19T07:39:03.825Z,2612.00
2023-04-19T07:40:04.123Z,2620.00
2023-04-19T07:41:04.320Z,2627.00
2023-04-19T07:42:04.497Z,2632.00
2023-04-19T07:43:04.760Z,2641.00
2023-04-19T07:44:05.076Z,2647.00
2023-04-19T07:45:05.256Z,2655.00
2023-04-19T07:46:05.553Z,2664.00
2023-04-19T07:47:05.716Z,2671.00
2023-04-19T07:48:05.953Z,2677.00
2023-04-19T07:49:06.080Z,2687.00
2023-04-19T07:50:06.335Z,2693.00
2023-04-19T07:51:06.488Z,2697.00
2023-04-19T07:52:06.645Z,2702.00
2023-04-19T07:53:06.828Z,2711.00
2023-04-19T07:54:07.036Z,2717.00
2023-04-19T07:55:07.374Z,2721.00
2023-04-19T07:56:07.388Z,2730.00
2023-04-19T07:57:07.606Z,2734.00
2023-04-19T07:58:07.767Z,2736.00
2023-04-19T07:59:09.321Z,2744.00
2023-04-19T08:00:08.294Z,2751.00
2023-04-19T08:01:08.383Z,2757.00
2023-04-19T08:02:08.640Z,2765.00
2023-04-19T08:03:08.879Z,2773.00
2023-04-19T08:04:09.221Z,2782.00
2023-04-19T08:05:09.159Z,2790.00
2023-04-19T08:06:09.218Z,2797.00
2023-04-19T08:07:09.416Z,2806.00
2023-04-19T08:08:09.565Z,2814.00
2023-04-19T08:09:09.879Z,2822.00
2023-04-19T08:10:09.940Z,2833.00
2023-04-19T08:11:10.141Z,2840.00
2023-04-19T08:12:14.834Z,2848.00
2023-04-19T08:13:10.510Z,2857.00
2023-04-19T08:14:22.302Z,2866.00
2023-04-19T08:15:32.904Z,2876.00
2023-04-19T08:17:24.609Z,2895.00
2023-04-19T08:18:11.486Z,2905.00
2023-04-19T08:19:11.599Z,2913.00
2023-04-19T08:20:11.776Z,2926.00
2023-04-19T08:21:11.993Z,2936.00
2023-04-19T08:22:12.184Z,2939.00
2023-04-19T08:23:21.293Z,2949.00
2023-04-19T08:24:12.502Z,2960.00
2023-04-19T08:25:12.685Z,2966.00
2023-04-19T08:26:12.874Z,2972.00
2023-04-19T08:27:13.107Z,2976.00
2023-04-19T08:28:13.233Z,2980.00
2023-04-19T08:29:13.437Z,2994.00
2023-04-19T08:30:13.596Z,3002.00
2023-04-19T08:31:13.783Z,3005.00
2023-04-19T08:32:14.063Z,3008.00
2023-04-19T08:33:14.197Z,3017.00
2023-04-19T08:34:14.363Z,3028.00
2023-04-19T08:35:14.548Z,3034.00
2023-04-19T08:36:17.138Z,3047.00
2023-04-19T08:37:14.918Z,3054.00
2023-04-19T08:38:15.068Z,3074.00
2023-04-19T08:39:29.063Z,3082.00
2023-04-19T08:40:15.427Z,3089.00
2023-04-19T08:41:15.607Z,3096.00
2023-04-19T08:42:28.889Z,3101.00
2023-04-19T08:43:15.994Z,3114.00
2023-04-19T08:44:19.835Z,3123.00
2023-04-19T08:45:27.835Z,3138.00
2023-04-19T08:46:16.569Z,3151.00
2023-04-19T08:47:23.608Z,3152.00
2023-04-19T08:48:16.923Z,3158.00
2023-04-19T08:49:17.466Z,3167.00
2023-04-19T08:50:31.208Z,3176.00
2023-04-19T08:51:17.452Z,3187.00
2023-04-19T08:52:17.578Z,3196.00
2023-04-19T08:53:24.902Z,3212.00
2023-04-19T08:54:17.938Z,3220.00
2023-04-19T08:55:18.142Z,3223.00
2023-04-19T08:56:32.005Z,3237.00
2023-04-19T08:57:18.509Z,3254.00
2023-04-19T08:58:28.620Z,3275.00
2023-04-19T08:59:19.697Z,3287.00
2023-04-19T09:00:19.025Z,3283.00
2023-04-19T09:01:30.950Z,3291.00
2023-04-19T09:02:19.575Z,3309.00
2023-04-19T09:03:19.662Z,3322.00
2023-04-19T09:04:34.832Z,3335.00
2023-04-19T09:05:20.223Z,3402.00
2023-04-19T09:06:20.199Z,3564.00
2023-04-19T09:07:20.382Z,3686.00
2023-04-19T09:08:20.482Z,3718.00
2023-04-19T09:10:20.855Z,3742.00
2023-04-19T09:11:21.030Z,3810.00
2023-04-19T09:12:21.244Z,3827.00
2023-04-19T09:13:21.426Z,3894.00
2023-04-19T09:14:21.614Z,3928.00
2023-04-19T09:15:21.801Z,4088.00
2023-04-19T09:16:22.181Z,4090.00
2023-04-19T09:17:22.223Z,4048.00
2023-04-19T09:18:22.524Z,4008.00
2023-04-19T09:19:25.154Z,4006.00
2023-04-19T09:20:22.716Z,3995.00
2023-04-19T09:21:22.910Z,4013.00
2023-04-19T09:22:23.120Z,4034.00
2023-04-19T09:23:23.279Z,4055.00
2023-04-19T09:24:23.896Z,4066.00
2023-04-19T09:25:43.746Z,4126.00
2023-04-19T09:26:23.950Z,4314.00
2023-04-19T09:27:24.049Z,4301.00
2023-04-19T09:28:24.182Z,4219.00
2023-04-19T09:29:24.374Z,4205.00
2023-04-19T09:30:32.463Z,4300.00
2023-04-19T09:32:25.084Z,5037.00
2023-04-19T09:33:25.173Z,4886.00
2023-04-19T09:34:25.288Z,5506.00
2023-04-19T09:35:25.470Z,6119.00
2023-04-19T09:36:25.663Z,6329.00
2023-04-19T09:37:39.036Z,6059.00
2023-04-19T09:38:26.055Z,7289.00
2023-04-19T09:39:26.271Z,24039.00
2023-04-19T09:40:26.441Z,10395.00
2023-04-19T09:41:26.618Z,81227.00
2023-04-19T09:42:47.194Z,79158.00
2023-04-19T09:43:55.894Z,78223.00
2023-04-19T09:45:30.494Z,80895.00
2023-04-19T09:46:27.600Z,83223.00
2023-04-19T09:47:27.841Z,75557.00
2023-04-19T09:48:27.996Z,75661.00
2023-04-19T09:49:41.537Z,82884.00
2023-04-19T09:50:28.848Z,79215.00
2023-04-19T09:51:28.615Z,6918.00
2023-04-19T09:52:28.815Z,79523.00
2023-04-19T09:53:28.994Z,79349.00
2023-04-19T09:54:29.214Z,79710.00
2023-04-19T09:55:31.718Z,80302.00
2023-04-19T09:56:29.641Z,79968.00
2023-04-19T09:57:29.871Z,79146.00
2023-04-19T09:58:38.285Z,78892.00
2023-04-19T09:59:30.250Z,80295.00
2023-04-19T10:00:36.033Z,79051.00
2023-04-19T10:01:30.690Z,76208.00
2023-04-19T10:02:30.979Z,76221.00
2023-04-19T10:03:31.173Z,78103.00
2023-04-19T10:04:44.130Z,79646.00
2023-04-19T10:05:31.525Z,82165.00
2023-04-19T10:06:45.700Z,83895.00
2023-04-19T10:07:31.915Z,82233.00
2023-04-19T10:08:32.061Z,80899.00
2023-04-19T10:09:34.103Z,79320.00
2023-04-19T10:10:41.950Z,80040.00
2023-04-19T10:11:32.849Z,81370.00
2023-04-19T10:12:54.848Z,80918.00
2023-04-19T10:13:33.055Z,79922.00
2023-04-19T10:14:33.295Z,79197.00
2023-04-19T10:15:47.206Z,80398.00
2023-04-19T10:16:33.704Z,81314.00
2023-04-19T10:17:33.906Z,81424.00
2023-04-19T10:18:34.044Z,80564.00
2023-04-19T10:19:34.263Z,78916.00
2023-04-19T10:20:34.472Z,78667.00
2023-04-19T10:21:34.683Z,79473.00
2023-04-19T10:22:34.905Z,80077.00
2023-04-19T10:23:35.059Z,81073.00
2023-04-19T10:24:35.268Z,80536.00
2023-04-19T10:25:35.497Z,78194.00
2023-04-19T10:26:35.702Z,76216.00
2023-04-19T10:27:35.949Z,78152.00
2023-04-19T10:28:36.104Z,81552.00
2023-04-19T10:29:36.296Z,81683.00
2023-04-19T10:30:36.505Z,79751.00
2023-04-19T10:31:36.732Z,79708.00
2023-04-19T10:32:36.989Z,80210.00
2023-04-19T10:33:37.143Z,80069.00
2023-04-19T10:34:37.360Z,79855.00
2023-04-19T10:35:37.565Z,80150.00
2023-04-19T10:36:37.765Z,80744.00
2023-04-19T10:37:37.998Z,80527.00
2023-04-19T10:38:38.193Z,80883.00
2023-04-19T10:39:38.385Z,80785.00
2023-04-19T10:40:38.601Z,79960.00
2023-04-19T10:41:38.819Z,80562.00
2023-04-19T10:42:39.059Z,80974.00
2023-04-19T10:43:39.238Z,80854.00
2023-04-19T10:44:39.429Z,81615.00
2023-04-19T10:45:39.688Z,81916.00
2023-04-19T10:46:40.083Z,80052.00
2023-04-19T10:47:40.072Z,78395.00
2023-04-19T10:48:40.244Z,79493.00
2023-04-19T10:49:40.422Z,81889.00
2023-04-19T10:50:40.648Z,82960.00
2023-04-19T10:51:40.833Z,81896.00
2023-04-19T10:52:41.067Z,80723.00
2023-04-19T10:53:41.235Z,80941.00
2023-04-19T10:54:41.452Z,82852.00
2023-04-19T10:55:41.659Z,81423.00
2023-04-19T10:56:41.873Z,84233.00
2023-04-19T10:57:42.112Z,81536.00
2023-04-19T10:58:42.305Z,79286.00
2023-04-19T10:59:42.496Z,79185.00
2023-04-19T11:00:42.716Z,80381.00
2023-04-19T11:01:43.154Z,82306.00
2023-04-19T11:02:43.272Z,81747.00
2023-04-19T11:03:43.527Z,82075.00
2023-04-19T11:04:43.592Z,83866.00
2023-04-19T11:05:43.716Z,81593.00
2023-04-19T11:06:43.933Z,81892.00
2023-04-19T11:07:44.160Z,82259.00
2023-04-19T11:08:44.348Z,81913.00
2023-04-19T11:09:44.543Z,81879.00
2023-04-19T11:10:44.760Z,81564.00
2023-04-19T11:11:44.983Z,81988.00
2023-04-19T11:12:45.166Z,81727.00
2023-04-19T11:13:45.329Z,81618.00
2023-04-19T11:14:45.538Z,81974.00
2023-04-19T11:15:45.788Z,81382.00
2023-04-19T11:16:46.518Z,81484.00
2023-04-19T11:17:46.212Z,81169.00
2023-04-19T11:18:46.368Z,78177.00
2023-04-19T11:19:46.571Z,75633.00
2023-04-19T11:20:46.786Z,24318.00
2023-04-19T11:21:47.002Z,21047.00
2023-04-19T11:22:47.218Z,77354.00
2023-04-19T11:23:47.507Z,79364.00
2023-04-19T11:24:47.629Z,80389.00
2023-04-19T11:25:47.832Z,80271.00
2023-04-19T11:26:48.033Z,81331.00
2023-04-19T11:27:48.300Z,82419.00
2023-04-19T11:28:48.454Z,81899.00
2023-04-19T11:29:48.662Z,82852.00
2023-04-19T11:30:48.879Z,82988.00
2023-04-19T11:31:49.139Z,81331.00
2023-04-19T11:32:49.356Z,81330.00
2023-04-19T11:33:49.524Z,80895.00
2023-04-19T11:34:49.736Z,80943.00
2023-04-19T11:35:49.942Z,81226.00
2023-04-19T11:36:50.163Z,79537.00
2023-04-19T11:37:50.347Z,78813.00
2023-04-19T11:38:50.523Z,79138.00
2023-04-19T11:39:50.688Z,80307.00
2023-04-19T11:40:50.862Z,81410.00
2023-04-19T11:41:51.068Z,82522.00
2023-04-19T11:42:51.315Z,82627.00
2023-04-19T11:43:51.452Z,81861.00
2023-04-19T11:44:51.678Z,81439.00
2023-04-19T11:45:51.885Z,79910.00
2023-04-19T11:46:52.114Z,79075.00
2023-04-19T11:47:52.349Z,81193.00
2023-04-19T11:48:52.550Z,82174.00
2023-04-19T11:49:52.686Z,82903.00
2023-04-19T11:50:52.853Z,82163.00
2023-04-19T11:51:53.092Z,80446.00
2023-04-19T11:52:53.285Z,79620.00
2023-04-19T11:53:53.474Z,79140.00
2023-04-19T11:54:53.669Z,81138.00
2023-04-19T11:55:54.010Z,82835.00
2023-04-19T11:56:54.064Z,83221.00
2023-04-19T11:57:54.290Z,82709.00
2023-04-19T11:58:54.510Z,82103.00
2023-04-19T11:59:54.686Z,79730.00
2023-04-19T12:00:54.909Z,80435.00
2023-04-19T12:01:55.158Z,80946.00
2023-04-19T12:02:55.595Z,80177.00
2023-04-19T12:03:55.889Z,79060.00
2023-04-19T12:04:55.900Z,77903.00
2023-04-19T12:05:56.203Z,78794.00
2023-04-19T12:06:56.108Z,80576.00
2023-04-19T12:07:56.290Z,80488.00
2023-04-19T12:08:56.467Z,80621.00
2023-04-19T12:09:56.662Z,80119.00
2023-04-19T12:10:56.867Z,79816.00
2023-04-19T12:11:57.104Z,79693.00
2023-04-19T12:12:57.316Z,79699.00
2023-04-19T12:13:57.480Z,79867.00
2023-04-19T12:14:57.680Z,80467.00
2023-04-19T12:15:57.894Z,80876.00
2023-04-19T12:16:58.202Z,81182.00
2023-04-19T12:17:58.386Z,80375.00
2023-04-19T12:18:58.525Z,79668.00
2023-04-19T12:19:58.732Z,78877.00
2023-04-19T12:21:01.234Z,77805.00
2023-04-19T12:21:59.146Z,76833.00
2023-04-19T12:22:59.369Z,76892.00
2023-04-19T12:23:59.566Z,78261.00
2023-04-19T12:24:59.758Z,78690.00
2023-04-19T12:25:59.974Z,79066.00
2023-04-19T12:27:00.169Z,79945.00
2023-04-19T12:28:00.364Z,81252.00
2023-04-19T12:29:00.540Z,80640.00
2023-04-19T12:30:00.756Z,79162.00
2023-04-19T12:31:01.016Z,78633.00
2023-04-19T12:32:01.169Z,78470.00